createdAt,value
2018-11-25T00:01:18.486Z,33.90
2018-11-25T00:06:22.576Z,35.20
2018-11-25T00:11:26.491Z,41.57
2018-11-25T00:16:30.348Z,74.03
2018-11-25T00:21:33.986Z,76.33
2018-11-25T00:26:40.738Z,81.90
2018-11-25T00:31:45.109Z,45.03
2018-11-25T00:36:49.366Z,38.60
2018-11-25T00:41:53.585Z,34.53
2018-11-25T00:46:58.788Z,35.93
2018-11-25T00:52:03.138Z,26.70
2018-11-25T00:57:07.092Z,23.73
2018-11-25T01:02:10.939Z,23.87
2018-11-25T01:07:15.072Z,20.30
2018-11-25T01:12:19.598Z,22.17
2018-11-25T01:17:24.340Z,22.57
2018-11-25T01:22:35.039Z,21.37
2018-11-25T01:27:42.773Z,26.43
2018-11-25T01:32:47.937Z,22.93
2018-11-25T01:37:51.600Z,20.93
2018-11-25T01:42:55.653Z,26.60
2018-11-25T01:48:00.526Z,19.40
2018-11-25T01:53:04.423Z,30.43
2018-11-25T01:58:08.567Z,25.03
2018-11-25T02:03:12.364Z,23.70
2018-11-25T02:08:16.342Z,25.43
2018-11-25T02:13:20.501Z,21.90
2018-11-25T02:18:24.469Z,23.17
2018-11-25T02:23:28.489Z,26.43
2018-11-25T02:28:33.014Z,21.80
2018-11-25T02:33:37.473Z,25.43
2018-11-25T02:38:41.219Z,28.07
2018-11-25T02:43:45.115Z,29.70
2018-11-25T02:48:48.742Z,19.03
2018-11-25T02:53:52.386Z,30.17
2018-11-25T02:58:57.357Z,29.40
2018-11-25T03:04:01.652Z,25.73
2018-11-25T03:09:06.960Z,25.97
2018-11-25T03:14:10.772Z,32.33
2018-11-25T03:19:14.723Z,22.27
2018-11-25T03:24:18.595Z,32.73
2018-11-25T03:29:27.687Z,18.67
2018-11-25T03:34:32.433Z,22.03
2018-11-25T03:39:36.655Z,19.27
2018-11-25T03:44:40.751Z,32.17
2018-11-25T03:49:44.852Z,23.40
2018-11-25T03:54:48.909Z,20.30
2018-11-25T03:59:53.074Z,19.40
2018-11-25T04:04:56.961Z,14.50
2018-11-25T04:10:01.152Z,18.00
2018-11-25T04:15:06.103Z,20.53
2018-11-25T04:20:13.589Z,13.80
2018-11-25T04:25:17.639Z,18.90
2018-11-25T04:30:21.624Z,14.90
2018-11-25T04:35:25.801Z,14.77
2018-11-25T04:40:29.727Z,20.80
2018-11-25T04:45:33.889Z,15.60
2018-11-25T04:50:37.832Z,22.53
2018-11-25T04:55:41.759Z,20.73
2018-11-25T05:00:46.432Z,16.10
2018-11-25T05:05:50.419Z,11.00
2018-11-25T05:10:58.489Z,14.17
2018-11-25T05:16:02.640Z,30.53
2018-11-25T05:21:07.666Z,12.67
2018-11-25T05:26:11.338Z,30.07
2018-11-25T05:31:17.737Z,13.83
2018-11-25T05:36:21.901Z,21.63
2018-11-25T05:41:26.357Z,21.40
2018-11-25T05:46:30.235Z,22.80
2018-11-25T05:51:36.883Z,15.87
2018-11-25T05:56:40.653Z,23.20
2018-11-25T06:01:44.735Z,20.40
2018-11-25T06:06:49.943Z,24.47
2018-11-25T06:11:55.823Z,28.53
2018-11-25T06:17:01.076Z,35.40
2018-11-25T06:22:06.119Z,29.47
2018-11-25T06:27:16.917Z,32.03
2018-11-25T06:32:25.196Z,27.17
2018-11-25T06:37:34.667Z,32.50
2018-11-25T06:42:42.516Z,34.30
2018-11-25T06:48:01.097Z,40.27
2018-11-25T06:53:06.872Z,33.97
2018-11-25T06:58:13.127Z,29.10
2018-11-25T07:03:17.749Z,32.10
2018-11-25T07:08:21.871Z,31.37
2018-11-25T07:13:27.631Z,29.53
2018-11-25T07:18:31.568Z,30.90
2018-11-25T07:23:35.794Z,32.80
2018-11-25T07:28:39.648Z,33.80
2018-11-25T07:33:44.307Z,22.10
2018-11-25T07:38:48.112Z,36.37
2018-11-25T07:43:54.099Z,31.13
2018-11-25T07:48:58.843Z,29.90
2018-11-25T07:54:03.801Z,38.83
2018-11-25T07:59:30.356Z,31.90
2018-11-25T08:04:39.774Z,27.70
2018-11-25T08:09:46.951Z,30.33
2018-11-25T08:14:51.279Z,33.00
2018-11-25T08:19:56.609Z,40.97
2018-11-25T08:25:00.742Z,36.17
2018-11-25T08:30:06.073Z,22.83
2018-11-25T08:35:11.325Z,30.23
2018-11-25T08:40:29.815Z,30.80
2018-11-25T08:45:38.751Z,38.77
2018-11-25T08:50:42.920Z,27.43
2018-11-25T08:55:52.879Z,28.23
2018-11-25T09:00:56.669Z,32.83
2018-11-25T09:06:01.571Z,33.00
2018-11-25T09:11:05.368Z,29.43
2018-11-25T09:16:09.827Z,29.60
2018-11-25T09:21:14.283Z,30.20
2018-11-25T09:26:18.360Z,19.40
2018-11-25T09:31:28.175Z,28.87
2018-11-25T09:36:32.322Z,17.23
2018-11-25T09:41:36.158Z,24.73
2018-11-25T09:46:42.650Z,21.60
2018-11-25T09:51:50.308Z,19.10
2018-11-25T09:56:55.702Z,16.77
2018-11-25T10:02:01.101Z,23.80
2018-11-25T10:07:05.218Z,19.90
2018-11-25T10:12:09.363Z,17.73
2018-11-25T10:17:13.209Z,14.93
2018-11-25T10:22:32.188Z,17.77
2018-11-25T10:27:36.821Z,14.67
2018-11-25T10:32:42.316Z,20.23
2018-11-25T10:37:44.704Z,15.07
2018-11-25T10:42:49.314Z,16.87
2018-11-25T10:47:52.939Z,19.33
2018-11-25T10:52:56.565Z,22.40
2018-11-25T10:58:00.440Z,17.90
2018-11-25T11:03:11.295Z,14.93
2018-11-25T11:08:15.973Z,20.20
2018-11-25T11:13:20.857Z,22.50
2018-11-25T11:18:24.551Z,16.93
2018-11-25T11:23:28.188Z,9.47
2018-11-25T11:28:32.103Z,21.93
2018-11-25T11:33:37.835Z,20.97
2018-11-25T11:38:41.924Z,19.87
2018-11-25T11:43:45.896Z,30.93
2018-11-25T11:48:49.519Z,19.57
2018-11-25T11:53:53.744Z,24.50
2018-11-25T11:58:57.364Z,24.10
2018-11-25T12:04:01.326Z,46.20
2018-11-25T12:09:08.924Z,38.20
2018-11-25T12:14:12.623Z,28.83
2018-11-25T12:19:16.604Z,23.87
2018-11-25T12:24:26.397Z,20.83
2018-11-25T12:29:39.142Z,19.40
2018-11-25T12:34:43.697Z,26.80
2018-11-25T12:39:47.644Z,27.77
2018-11-25T12:44:51.678Z,17.67
2018-11-25T12:49:58.700Z,16.83
2018-11-25T12:55:05.950Z,19.30
2018-11-25T13:00:19.735Z,18.73
2018-11-25T13:05:23.412Z,23.73
2018-11-25T13:10:29.458Z,19.07
2018-11-25T13:15:33.228Z,16.50
2018-11-25T13:20:37.769Z,24.90
2018-11-25T13:25:41.639Z,19.00
2018-11-25T13:30:49.400Z,16.00
2018-11-25T13:35:53.273Z,19.90
2018-11-25T13:40:57.212Z,13.30
2018-11-25T13:46:01.254Z,8.70
2018-11-25T13:51:08.989Z,10.30
2018-11-25T13:56:13.143Z,12.80
2018-11-25T14:01:17.200Z,16.33
2018-11-25T14:06:23.862Z,12.37
2018-11-25T14:11:30.015Z,12.23
2018-11-25T14:16:35.053Z,17.53
2018-11-25T14:21:38.006Z,13.00
2018-11-25T14:26:47.004Z,12.10
2018-11-25T14:31:50.873Z,10.70
2018-11-25T14:36:54.792Z,9.70
2018-11-25T14:41:58.967Z,8.70
2018-11-25T14:47:02.714Z,10.10
2018-11-25T14:52:06.768Z,7.13
2018-11-25T14:57:10.700Z,9.47
2018-11-25T15:02:14.533Z,7.50
2018-11-25T15:07:18.196Z,8.07
2018-11-25T15:12:22.990Z,8.00
2018-11-25T15:17:26.807Z,8.10
2018-11-25T15:22:30.516Z,7.53
2018-11-25T15:27:34.161Z,11.17
2018-11-25T15:32:37.852Z,11.00
2018-11-25T15:37:43.681Z,8.40
2018-11-25T15:42:47.426Z,12.77
2018-11-25T15:48:00.098Z,9.97
2018-11-25T15:53:04.135Z,8.80
2018-11-25T15:58:08.516Z,7.40
2018-11-25T16:03:13.067Z,6.93
2018-11-25T16:08:22.767Z,7.40
2018-11-25T16:13:27.928Z,7.10
2018-11-25T16:18:34.278Z,7.33
2018-11-25T16:23:38.220Z,7.47
2018-11-25T16:28:43.638Z,8.47
2018-11-25T16:33:47.305Z,27.37
2018-11-25T16:38:54.522Z,18.70
2018-11-25T16:44:02.230Z,14.93
2018-11-25T16:49:06.479Z,8.30
2018-11-25T16:54:10.426Z,15.43
2018-11-25T16:59:14.136Z,10.20
2018-11-25T17:04:18.068Z,9.83
2018-11-25T17:09:23.119Z,20.27
2018-11-25T17:14:47.159Z,16.50
2018-11-25T17:19:55.551Z,21.40
2018-11-25T17:25:00.930Z,18.10
2018-11-25T17:30:11.532Z,10.20
2018-11-25T17:35:20.101Z,11.30
2018-11-25T17:40:24.126Z,16.63
2018-11-25T17:45:27.812Z,13.37
2018-11-25T17:50:31.643Z,10.03
2018-11-25T17:55:35.603Z,13.93
2018-11-25T18:00:47.048Z,9.67
2018-11-25T18:05:52.019Z,16.33
2018-11-25T18:11:00.045Z,11.37
2018-11-25T18:16:05.416Z,14.70
2018-11-25T18:21:10.721Z,10.63
2018-11-25T18:26:14.717Z,15.13
2018-11-25T18:31:18.475Z,15.83
2018-11-25T18:36:22.484Z,12.23
2018-11-25T18:41:26.855Z,8.50
2018-11-25T18:46:33.558Z,10.63
2018-11-25T18:51:37.525Z,17.90
2018-11-25T18:56:41.532Z,16.63
2018-11-25T19:01:57.041Z,20.53
2018-11-25T19:07:04.455Z,13.13
2018-11-25T19:12:09.269Z,18.43
2018-11-25T19:17:13.011Z,17.73
2018-11-25T19:22:16.925Z,22.80
2018-11-25T19:27:20.781Z,14.70
2018-11-25T19:32:27.485Z,12.70
2018-11-25T19:37:35.327Z,14.27
2018-11-25T19:42:39.745Z,12.20
2018-11-25T19:47:57.307Z,13.80
2018-11-25T19:53:02.382Z,17.27
2018-11-25T19:58:07.110Z,11.83
2018-11-25T20:03:11.525Z,12.60
2018-11-25T20:08:17.559Z,15.70
2018-11-25T20:13:21.770Z,14.60
2018-11-25T20:18:33.358Z,17.73
2018-11-25T20:23:38.330Z,14.63
2018-11-25T20:28:45.545Z,17.70
2018-11-25T20:33:52.568Z,13.03
2018-11-25T20:39:01.678Z,13.80
2018-11-25T20:44:06.360Z,11.50
2018-11-25T20:49:10.494Z,13.70
2018-11-25T20:54:14.972Z,11.10
2018-11-25T21:04:28.739Z,7.03
2018-11-25T21:09:32.814Z,12.70
2018-11-25T21:14:36.817Z,9.13
2018-11-25T21:19:47.735Z,8.97
2018-11-25T21:24:52.063Z,10.10
2018-11-25T21:29:57.001Z,13.13
2018-11-25T21:35:01.541Z,10.60
2018-11-25T21:40:08.949Z,14.33
2018-11-25T21:45:14.719Z,6.83
2018-11-25T21:50:31.982Z,11.83
2018-11-25T21:55:36.909Z,5.23
2018-11-25T22:00:52.163Z,21.37
2018-11-25T22:05:58.943Z,10.50
2018-11-25T22:11:03.273Z,24.97
2018-11-25T22:16:18.185Z,8.73
2018-11-25T22:21:23.444Z,3.40
2018-11-25T22:26:27.954Z,9.87
2018-11-25T22:31:35.591Z,8.97
2018-11-25T22:36:41.006Z,9.50
2018-11-25T22:41:46.413Z,14.27
2018-11-25T22:46:50.103Z,6.93
2018-11-25T22:51:54.040Z,17.23
2018-11-25T22:56:58.575Z,12.73
2018-11-25T23:02:06.519Z,10.90
2018-11-25T23:07:13.174Z,8.63
2018-11-25T23:12:17.664Z,5.90
2018-11-25T23:17:27.267Z,7.53
2018-11-25T23:22:31.588Z,19.53
2018-11-25T23:27:36.184Z,10.20
2018-11-25T23:32:39.822Z,12.03
2018-11-25T23:37:43.566Z,11.93
2018-11-25T23:42:48.404Z,11.43
2018-11-25T23:47:52.309Z,7.97
2018-11-25T23:52:56.271Z,6.63
2018-11-25T23:58:00.228Z,7.13
